createdAt,value
2023-02-26T00:01:25.926Z,100929.59
2023-02-26T00:03:55.142Z,100935.03
2023-02-26T00:06:25.398Z,100945.19
2023-02-26T00:08:55.237Z,100942.50
2023-02-26T00:11:23.835Z,100941.69
2023-02-26T00:13:52.318Z,100947.19
2023-02-26T00:16:27.914Z,100952.66
2023-02-26T00:18:56.074Z,100960.41
2023-02-26T00:21:25.193Z,100962.63
2023-02-26T00:23:53.396Z,100962.63
2023-02-26T00:26:24.424Z,100966.97
2023-02-26T00:28:52.850Z,100971.13
2023-02-26T00:31:24.621Z,100970.97
2023-02-26T00:33:53.334Z,100976.47
2023-02-26T00:36:24.241Z,100977.13
2023-02-26T00:39:03.529Z,100978.50
2023-02-26T00:41:33.222Z,100987.75
2023-02-26T00:44:01.232Z,100995.63
2023-02-26T00:46:39.769Z,101008.03
2023-02-26T00:49:17.852Z,101007.78
2023-02-26T00:51:50.377Z,101015.34
2023-02-26T00:54:21.811Z,101013.31
2023-02-26T00:56:52.653Z,101015.72
2023-02-26T00:59:21.363Z,101005.22
2023-02-26T01:01:49.721Z,101002.00
2023-02-26T01:04:19.808Z,101004.53
2023-02-26T01:06:50.036Z,101011.66
2023-02-26T01:09:25.757Z,101008.81
2023-02-26T01:11:56.581Z,101018.50
2023-02-26T01:14:25.552Z,101015.66
2023-02-26T01:17:02.323Z,101012.59
2023-02-26T01:19:38.449Z,101018.19
2023-02-26T01:22:11.155Z,101024.81
2023-02-26T01:24:39.124Z,101021.44
2023-02-26T01:27:08.861Z,101028.06
2023-02-26T01:29:36.920Z,101028.38
2023-02-26T01:32:09.577Z,101024.63
2023-02-26T01:34:43.219Z,101025.47
2023-02-26T01:37:23.618Z,101034.78
2023-02-26T01:40:04.842Z,101040.78
2023-02-26T01:42:38.296Z,101040.16
2023-02-26T01:45:13.149Z,101050.47
2023-02-26T01:47:49.349Z,101047.19
2023-02-26T01:50:20.125Z,101048.75
2023-02-26T01:53:19.134Z,101048.50
2023-02-26T01:55:51.419Z,101054.69
2023-02-26T01:58:22.397Z,101050.22
2023-02-26T02:00:50.421Z,101070.38
2023-02-26T02:03:18.235Z,101069.75
2023-02-26T02:05:49.698Z,101075.56
2023-02-26T02:08:18.219Z,101077.13
2023-02-26T02:10:48.543Z,101083.63
2023-02-26T02:13:29.428Z,101090.81
2023-02-26T02:16:07.870Z,101091.56
2023-02-26T02:18:43.100Z,101097.38
2023-02-26T02:21:30.397Z,101100.13
2023-02-26T02:24:05.098Z,101101.00
2023-02-26T02:26:54.394Z,101110.72
2023-02-26T02:29:59.279Z,101113.66
2023-02-26T02:32:30.677Z,101111.69
2023-02-26T02:35:08.159Z,101114.00
2023-02-26T02:37:40.473Z,101112.09
2023-02-26T02:40:12.500Z,101110.31
2023-02-26T02:42:45.449Z,101126.06
2023-02-26T02:45:19.052Z,101133.56
2023-02-26T02:47:51.039Z,101126.03
2023-02-26T02:50:25.471Z,101136.47
2023-02-26T02:52:57.924Z,101126.28
2023-02-26T02:55:29.502Z,101130.91
2023-02-26T02:58:01.730Z,101133.06
2023-02-26T03:00:32.585Z,101127.25
2023-02-26T03:03:07.842Z,101134.28
2023-02-26T03:05:35.833Z,101150.28
2023-02-26T03:08:09.618Z,101140.06
2023-02-26T03:10:37.890Z,101143.13
2023-02-26T03:13:05.816Z,101146.06
2023-02-26T03:15:43.562Z,101152.34
2023-02-26T03:18:24.379Z,101149.91
2023-02-26T03:20:59.146Z,101158.53
2023-02-26T03:23:34.934Z,101160.69
2023-02-26T03:26:12.866Z,101161.31
2023-02-26T03:28:45.929Z,101160.34
2023-02-26T03:31:19.849Z,101164.59
2023-02-26T03:33:55.671Z,101164.84
2023-02-26T03:36:29.027Z,101174.06
2023-02-26T03:39:00.701Z,101170.91
2023-02-26T03:41:38.663Z,101178.91
2023-02-26T03:44:10.618Z,101185.78
2023-02-26T03:46:43.455Z,101184.94
2023-02-26T03:49:16.706Z,101191.13
2023-02-26T03:51:46.276Z,101190.84
2023-02-26T03:54:20.699Z,101204.31
2023-02-26T03:56:49.619Z,101203.63
2023-02-26T03:59:18.359Z,101206.72
2023-02-26T04:01:51.209Z,101208.56
2023-02-26T04:04:26.610Z,101212.69
2023-02-26T04:06:55.273Z,101214.28
2023-02-26T04:09:25.824Z,101223.94
2023-02-26T04:11:55.785Z,101225.66
2023-02-26T04:14:23.513Z,101222.38
2023-02-26T04:16:51.229Z,101225.88
2023-02-26T04:19:20.322Z,101240.53
2023-02-26T04:21:48.183Z,101233.78
2023-02-26T04:24:15.873Z,101241.38
2023-02-26T04:26:43.806Z,101247.47
2023-02-26T04:29:11.642Z,101242.47
2023-02-26T04:31:39.400Z,101245.75
2023-02-26T04:34:07.176Z,101240.94
2023-02-26T04:36:38.512Z,101249.03
2023-02-26T04:39:06.726Z,101250.38
2023-02-26T04:41:34.363Z,101261.53
2023-02-26T04:44:02.160Z,101266.25
2023-02-26T04:46:30.141Z,101266.59
2023-02-26T04:48:58.218Z,101269.41
2023-02-26T04:51:26.578Z,101272.53
2023-02-26T04:53:55.674Z,101276.53
2023-02-26T04:56:24.107Z,101284.31
2023-02-26T04:58:51.924Z,101287.72
2023-02-26T05:01:19.610Z,101295.47
2023-02-26T05:03:47.287Z,101290.97
2023-02-26T05:06:14.949Z,101297.88
2023-02-26T05:08:43.127Z,101298.50
2023-02-26T05:11:12.347Z,101304.91
2023-02-26T05:13:40.237Z,101307.34
2023-02-26T05:16:09.085Z,101299.22
2023-02-26T05:18:36.809Z,101314.59
2023-02-26T05:21:05.490Z,101325.25
2023-02-26T05:23:33.385Z,101318.72
2023-02-26T05:26:01.233Z,101320.28
2023-02-26T05:28:30.267Z,101326.47
2023-02-26T05:30:59.498Z,101325.22
2023-02-26T05:33:29.143Z,101341.47
2023-02-26T05:35:57.467Z,101340.50
2023-02-26T05:38:25.324Z,101345.72
2023-02-26T05:40:57.319Z,101350.41
2023-02-26T05:43:25.512Z,101352.06
2023-02-26T05:45:55.411Z,101363.44
2023-02-26T05:48:24.029Z,101361.34
2023-02-26T05:50:52.328Z,101357.09
2023-02-26T05:53:20.121Z,101368.50
2023-02-26T05:55:47.838Z,101374.78
2023-02-26T05:58:18.024Z,101374.66
2023-02-26T06:00:46.202Z,101380.84
2023-02-26T06:03:15.573Z,101379.66
2023-02-26T06:05:43.272Z,101385.94
2023-02-26T06:08:12.255Z,101387.59
2023-02-26T06:10:40.063Z,101386.41
2023-02-26T06:13:07.695Z,101393.66
2023-02-26T06:15:35.536Z,101401.78
2023-02-26T06:18:03.247Z,101410.84
2023-02-26T06:20:32.282Z,101414.78
2023-02-26T06:23:00.014Z,101421.50
2023-02-26T06:25:27.786Z,101421.88
2023-02-26T06:27:55.561Z,101430.44
2023-02-26T06:30:23.774Z,101421.50
2023-02-26T06:32:51.820Z,101430.13
2023-02-26T06:35:20.756Z,101436.41
2023-02-26T06:37:49.981Z,101435.03
2023-02-26T06:40:18.343Z,101452.31
2023-02-26T06:42:46.093Z,101447.84
2023-02-26T06:45:13.896Z,101452.41
2023-02-26T06:47:41.794Z,101449.00
2023-02-26T06:50:11.202Z,101446.97
2023-02-26T06:52:39.448Z,101456.31
2023-02-26T06:55:09.756Z,101466.78
2023-02-26T06:57:37.906Z,101462.72
2023-02-26T07:00:08.532Z,101466.69
2023-02-26T07:02:36.618Z,101483.94
2023-02-26T07:05:04.738Z,101477.94
2023-02-26T07:07:32.418Z,101490.19
2023-02-26T07:10:00.276Z,101488.50
2023-02-26T07:12:29.450Z,101494.44
2023-02-26T07:14:57.398Z,101502.31
2023-02-26T07:17:26.563Z,101513.81
2023-02-26T07:19:54.457Z,101519.16
2023-02-26T07:22:22.715Z,101509.38
2023-02-26T07:24:51.201Z,101524.47
2023-02-26T07:27:20.236Z,101521.28
2023-02-26T07:29:49.283Z,101522.03
2023-02-26T07:32:17.182Z,101528.56
2023-02-26T07:34:47.131Z,101539.00
2023-02-26T07:37:15.319Z,101544.72
2023-02-26T07:39:43.238Z,101542.56
2023-02-26T07:42:14.834Z,101549.50
2023-02-26T07:44:43.052Z,101551.94
2023-02-26T07:47:14.611Z,101555.97
2023-02-26T07:49:42.530Z,101554.16
2023-02-26T07:52:10.203Z,101565.78
2023-02-26T07:54:38.057Z,101562.88
2023-02-26T07:57:06.452Z,101571.75
2023-02-26T07:59:34.194Z,101574.69
2023-02-26T08:02:02.325Z,101579.69
2023-02-26T08:04:33.028Z,101587.59
2023-02-26T08:07:01.513Z,101584.03
2023-02-26T08:09:30.499Z,101587.47
2023-02-26T08:11:58.344Z,101587.88
2023-02-26T08:14:26.054Z,101589.72
2023-02-26T08:16:54.875Z,101590.13
2023-02-26T08:19:23.904Z,101596.22
2023-02-26T08:21:55.162Z,101590.81
2023-02-26T08:24:23.549Z,101601.38
2023-02-26T08:26:52.395Z,101609.25
2023-02-26T08:29:21.089Z,101612.44
2023-02-26T08:31:49.162Z,101612.81
2023-02-26T08:34:17.012Z,101625.59
2023-02-26T08:36:44.815Z,101631.53
2023-02-26T08:39:13.886Z,101629.94
2023-02-26T08:41:41.642Z,101631.06
2023-02-26T08:44:09.592Z,101637.88
2023-02-26T08:46:37.317Z,101631.97
2023-02-26T08:49:05.025Z,101643.16
2023-02-26T08:51:33.062Z,101647.28
2023-02-26T08:54:03.123Z,101643.84
2023-02-26T08:56:32.619Z,101645.06
2023-02-26T08:59:00.386Z,101646.66
2023-02-26T09:01:28.720Z,101656.97
2023-02-26T09:03:56.764Z,101664.66
2023-02-26T09:06:25.000Z,101662.78
2023-02-26T09:08:52.880Z,101674.03
2023-02-26T09:11:20.573Z,101673.66
2023-02-26T09:13:49.836Z,101672.38
2023-02-26T09:16:17.728Z,101668.25
2023-02-26T09:18:45.477Z,101672.03
2023-02-26T09:21:13.225Z,101669.66
2023-02-26T09:23:40.940Z,101670.09
2023-02-26T09:26:10.019Z,101680.94
2023-02-26T09:28:37.815Z,101673.88
2023-02-26T09:31:07.833Z,101678.47
2023-02-26T09:33:35.939Z,101676.31
2023-02-26T09:36:03.938Z,101681.41
2023-02-26T09:38:31.917Z,101678.84
2023-02-26T09:41:04.467Z,101681.88
2023-02-26T09:43:58.495Z,101687.81
2023-02-26T09:46:38.865Z,101689.66
2023-02-26T09:49:19.201Z,101694.16
2023-02-26T09:51:51.955Z,101688.59
2023-02-26T09:54:23.870Z,101687.38
2023-02-26T09:56:53.829Z,101691.63
2023-02-26T09:59:24.777Z,101697.94
2023-02-26T10:02:00.276Z,101703.56
2023-02-26T10:04:47.756Z,101705.84
2023-02-26T10:07:24.821Z,101702.56
2023-02-26T10:10:06.008Z,101715.34
2023-02-26T10:12:37.086Z,101720.44
2023-02-26T10:15:13.355Z,101713.03
2023-02-26T10:17:51.524Z,101724.69
2023-02-26T10:20:23.033Z,101722.03
2023-02-26T10:22:59.241Z,101725.44
2023-02-26T10:25:32.148Z,101732.13
2023-02-26T10:28:10.730Z,101728.22
2023-02-26T10:30:43.976Z,101727.84
2023-02-26T10:33:21.875Z,101728.34
2023-02-26T10:35:54.124Z,101728.69
2023-02-26T10:38:25.580Z,101734.19
2023-02-26T10:40:59.959Z,101723.97
2023-02-26T10:43:35.717Z,101726.38
2023-02-26T10:46:20.011Z,101729.13
2023-02-26T10:49:03.621Z,101731.44
2023-02-26T10:51:36.522Z,101733.41
2023-02-26T10:54:21.929Z,101735.81
2023-02-26T10:56:49.597Z,101730.84
2023-02-26T10:59:17.284Z,101734.88
2023-02-26T11:01:46.960Z,101738.19
2023-02-26T11:04:19.080Z,101736.63
2023-02-26T11:06:50.716Z,101748.53
2023-02-26T11:09:21.940Z,101747.94
2023-02-26T11:11:53.305Z,101749.72
2023-02-26T11:14:21.932Z,101738.44
2023-02-26T11:16:53.312Z,101755.34
2023-02-26T11:19:28.533Z,101754.34
2023-02-26T11:21:59.283Z,101750.00
2023-02-26T11:24:32.836Z,101759.47
2023-02-26T11:27:04.048Z,101768.22
2023-02-26T11:29:39.171Z,101761.66
2023-02-26T11:32:08.019Z,101766.53
2023-02-26T11:34:38.394Z,101763.59
2023-02-26T11:37:06.763Z,101764.59
2023-02-26T11:39:37.221Z,101756.03
2023-02-26T11:42:05.713Z,101752.75
2023-02-26T11:44:38.593Z,101755.06
2023-02-26T11:47:09.001Z,101766.63
2023-02-26T11:49:44.742Z,101760.91
2023-02-26T11:52:21.611Z,101764.59
2023-02-26T11:54:52.102Z,101765.28
2023-02-26T11:57:24.033Z,101757.03
2023-02-26T11:59:53.855Z,101760.19
2023-02-26T12:02:25.490Z,101759.72
2023-02-26T12:04:57.549Z,101768.19
2023-02-26T12:07:25.596Z,101753.34
2023-02-26T12:09:53.970Z,101756.38
2023-02-26T12:12:45.400Z,101754.03
2023-02-26T12:15:22.893Z,101753.50
2023-02-26T12:18:06.824Z,101755.31
2023-02-26T12:20:44.270Z,101750.84
2023-02-26T12:23:31.138Z,101744.88
2023-02-26T12:26:23.367Z,101751.44
2023-02-26T12:29:23.882Z,101752.44
2023-02-26T12:32:10.324Z,101749.16
2023-02-26T12:34:55.316Z,101753.38
2023-02-26T12:37:50.329Z,101756.69
2023-02-26T12:40:43.244Z,101756.53
2023-02-26T12:43:16.995Z,101750.41
2023-02-26T12:45:53.817Z,101763.44
2023-02-26T12:48:54.104Z,101754.91
2023-02-26T12:51:37.450Z,101752.09
2023-02-26T12:54:24.987Z,101750.88
2023-02-26T12:57:35.149Z,101749.06
2023-02-26T13:00:23.782Z,101753.31
2023-02-26T13:03:27.024Z,101755.03
2023-02-26T13:06:17.430Z,101748.94
2023-02-26T13:08:52.362Z,101744.16
2023-02-26T13:11:31.688Z,101739.75
2023-02-26T13:14:14.893Z,101746.31
2023-02-26T13:16:52.651Z,101738.25
2023-02-26T13:19:32.104Z,101740.09
2023-02-26T13:22:04.793Z,101737.66
2023-02-26T13:24:37.583Z,101733.41
2023-02-26T13:27:07.975Z,101737.53
2023-02-26T13:29:40.228Z,101739.38
2023-02-26T13:32:13.792Z,101737.25
2023-02-26T13:34:44.886Z,101728.75
2023-02-26T13:37:23.721Z,101739.66
2023-02-26T13:40:01.158Z,101742.44
2023-02-26T13:42:39.543Z,101742.19
2023-02-26T13:45:44.814Z,101749.53
2023-02-26T13:48:21.742Z,101743.41
2023-02-26T13:50:58.396Z,101744.53
2023-02-26T13:53:43.922Z,101740.56
2023-02-26T13:56:17.518Z,101743.25
2023-02-26T13:58:50.930Z,101745.72
2023-02-26T14:01:21.092Z,101744.69
2023-02-26T14:03:52.057Z,101745.50
2023-02-26T14:06:44.731Z,101743.91
2023-02-26T14:09:38.505Z,101743.75
2023-02-26T14:12:26.386Z,101740.94
2023-02-26T14:15:28.647Z,101736.91
2023-02-26T14:18:05.604Z,101738.88
2023-02-26T14:20:36.208Z,101742.09
2023-02-26T14:23:22.330Z,101738.94
2023-02-26T14:25:53.368Z,101743.47
2023-02-26T14:28:46.408Z,101748.00
2023-02-26T14:31:22.681Z,101743.19
2023-02-26T14:34:13.156Z,101748.41
2023-02-26T14:36:46.377Z,101750.13
2023-02-26T14:39:26.093Z,101742.19
2023-02-26T14:41:59.822Z,101749.31
2023-02-26T14:44:31.685Z,101754.66
2023-02-26T14:47:01.577Z,101752.44
2023-02-26T14:49:32.409Z,101743.28
2023-02-26T14:52:18.302Z,101749.50
2023-02-26T14:55:05.431Z,101754.84
2023-02-26T14:57:42.515Z,101753.16
2023-02-26T15:00:22.733Z,101752.91
2023-02-26T15:03:15.842Z,101747.31
2023-02-26T15:05:59.594Z,101749.31
2023-02-26T15:08:45.359Z,101764.00
2023-02-26T15:11:32.718Z,101756.94
2023-02-26T15:14:39.683Z,101747.53
2023-02-26T15:17:20.019Z,101757.94
2023-02-26T15:20:02.161Z,101756.69
2023-02-26T15:22:41.615Z,101763.88
2023-02-26T15:25:20.160Z,101763.16
2023-02-26T15:27:48.613Z,101768.19
2023-02-26T15:30:17.732Z,101761.41
2023-02-26T15:32:45.530Z,101768.34
2023-02-26T15:35:18.923Z,101768.66
2023-02-26T15:37:50.705Z,101771.34
2023-02-26T15:40:19.747Z,101771.91
2023-02-26T15:42:52.658Z,101769.97
2023-02-26T15:45:25.325Z,101774.28
2023-02-26T15:47:57.111Z,101779.25
2023-02-26T15:50:31.249Z,101785.28
2023-02-26T15:53:02.139Z,101787.22
2023-02-26T15:55:35.385Z,101785.19
2023-02-26T15:58:04.772Z,101784.16
2023-02-26T16:00:34.388Z,101780.59
2023-02-26T16:03:02.228Z,101790.47
2023-02-26T16:05:32.212Z,101796.69
2023-02-26T16:07:59.925Z,101799.63
2023-02-26T16:10:33.358Z,101795.00
2023-02-26T16:13:02.880Z,101805.59
2023-02-26T16:15:34.645Z,101804.38
2023-02-26T16:18:07.283Z,101805.13
2023-02-26T16:20:40.937Z,101804.28
2023-02-26T16:23:14.503Z,101806.22
2023-02-26T16:25:50.666Z,101806.81
2023-02-26T16:28:22.045Z,101810.09
2023-02-26T16:30:54.343Z,101815.34
2023-02-26T16:33:24.621Z,101815.06
2023-02-26T16:35:58.579Z,101815.91
2023-02-26T16:38:28.165Z,101821.03
2023-02-26T16:41:00.085Z,101823.47
2023-02-26T16:43:54.490Z,101831.78
2023-02-26T16:46:30.364Z,101832.19
2023-02-26T16:49:03.320Z,101835.84
2023-02-26T16:51:37.517Z,101837.53
2023-02-26T16:54:09.603Z,101844.97
2023-02-26T16:56:41.458Z,101850.69
2023-02-26T16:59:14.527Z,101855.50
2023-02-26T17:01:54.630Z,101856.31
2023-02-26T17:04:25.815Z,101864.00
2023-02-26T17:06:55.498Z,101870.19
2023-02-26T17:09:48.805Z,101874.81
2023-02-26T17:12:20.721Z,101877.16
2023-02-26T17:14:56.521Z,101882.28
2023-02-26T17:17:25.679Z,101890.91
2023-02-26T17:19:54.127Z,101882.84
2023-02-26T17:22:28.661Z,101894.69
2023-02-26T17:24:56.675Z,101893.00
2023-02-26T17:27:29.321Z,101895.78
2023-02-26T17:29:58.842Z,101896.03
2023-02-26T17:32:29.370Z,101898.59
2023-02-26T17:34:58.018Z,101898.59
2023-02-26T17:37:33.674Z,101893.75
2023-02-26T17:40:01.498Z,101901.66
2023-02-26T17:42:29.355Z,101908.09
2023-02-26T17:44:57.177Z,101908.09
2023-02-26T17:47:27.520Z,101909.06
2023-02-26T17:49:55.491Z,101904.69
2023-02-26T17:52:23.419Z,101918.97
2023-02-26T17:54:52.601Z,101922.00
2023-02-26T17:57:22.961Z,101930.91
2023-02-26T17:59:50.596Z,101930.78
2023-02-26T18:02:23.229Z,101928.22
2023-02-26T18:04:51.944Z,101930.03
2023-02-26T18:07:20.462Z,101938.06
2023-02-26T18:09:49.615Z,101942.59
2023-02-26T18:12:23.243Z,101937.34
2023-02-26T18:14:51.242Z,101932.22
2023-02-26T18:17:23.530Z,101940.13
2023-02-26T18:19:51.656Z,101936.88
2023-02-26T18:22:23.818Z,101942.34
2023-02-26T18:24:52.177Z,101941.47
2023-02-26T18:27:23.638Z,101948.16
2023-02-26T18:29:52.277Z,101948.66
2023-02-26T18:32:22.649Z,101951.81
2023-02-26T18:34:50.783Z,101947.31
2023-02-26T18:37:21.296Z,101952.44
2023-02-26T18:39:49.235Z,101954.16
2023-02-26T18:42:24.021Z,101952.06
2023-02-26T18:44:54.778Z,101956.81
2023-02-26T18:47:23.476Z,101955.97
2023-02-26T18:49:52.535Z,101957.06
2023-02-26T18:52:20.468Z,101960.09
2023-02-26T18:54:48.151Z,101958.75
2023-02-26T18:57:17.330Z,101949.91
2023-02-26T18:59:46.515Z,101955.25
2023-02-26T19:02:14.632Z,101957.19
2023-02-26T19:04:43.225Z,101956.56
2023-02-26T19:07:11.419Z,101961.09
2023-02-26T19:09:39.402Z,101956.81
2023-02-26T19:12:09.348Z,101962.66
2023-02-26T19:14:39.812Z,101961.06
2023-02-26T19:17:09.132Z,101964.59
2023-02-26T19:19:37.128Z,101968.50
2023-02-26T19:22:04.790Z,101972.84
2023-02-26T19:24:33.121Z,101975.53
2023-02-26T19:27:00.850Z,101973.59
2023-02-26T19:29:28.668Z,101979.59
2023-02-26T19:31:56.580Z,101984.44
2023-02-26T19:34:26.164Z,101985.94
2023-02-26T19:36:54.033Z,101995.06
2023-02-26T19:39:21.666Z,101997.94
2023-02-26T19:41:53.252Z,101990.78
2023-02-26T19:44:22.150Z,101999.91
2023-02-26T19:46:50.522Z,101998.44
2023-02-26T19:49:18.665Z,101997.06
2023-02-26T19:51:48.017Z,102001.84
2023-02-26T19:54:15.701Z,101996.69
2023-02-26T19:56:44.530Z,102014.47
2023-02-26T19:59:12.600Z,102006.31
2023-02-26T20:01:41.380Z,102015.44
2023-02-26T20:04:09.634Z,102021.03
2023-02-26T20:06:37.720Z,102015.81
2023-02-26T20:09:07.404Z,102022.25
2023-02-26T20:11:35.779Z,102019.78
2023-02-26T20:14:04.888Z,102027.34
2023-02-26T20:16:32.559Z,102021.50
2023-02-26T20:19:00.653Z,102024.88
2023-02-26T20:21:28.785Z,102035.59
2023-02-26T20:23:57.816Z,102037.31
2023-02-26T20:26:26.990Z,102033.66
2023-02-26T20:28:54.993Z,102040.81
2023-02-26T20:31:22.740Z,102042.28
2023-02-26T20:33:50.886Z,102051.91
2023-02-26T20:36:18.757Z,102052.41
2023-02-26T20:38:46.595Z,102051.13
2023-02-26T20:41:14.717Z,102063.78
2023-02-26T20:43:43.668Z,102070.69
2023-02-26T20:46:11.597Z,102074.31
2023-02-26T20:48:41.836Z,102067.75
2023-02-26T20:51:13.045Z,102069.34
2023-02-26T20:53:40.966Z,102067.28
2023-02-26T20:56:09.091Z,102075.75
2023-02-26T20:58:38.321Z,102079.63
2023-02-26T21:01:12.025Z,102085.31
2023-02-26T21:03:39.873Z,102086.25
2023-02-26T21:06:08.232Z,102087.38
2023-02-26T21:08:36.268Z,102084.56
2023-02-26T21:11:10.099Z,102079.94
2023-02-26T21:13:39.052Z,102078.22
2023-02-26T21:16:06.828Z,102085.31
2023-02-26T21:18:35.894Z,102086.38
2023-02-26T21:21:04.970Z,102083.81
2023-02-26T21:23:32.700Z,102095.84
2023-02-26T21:26:00.476Z,102097.16
2023-02-26T21:28:28.141Z,102097.34
2023-02-26T21:30:58.543Z,102101.31
2023-02-26T21:33:27.821Z,102102.16
2023-02-26T21:35:57.117Z,102093.31
2023-02-26T21:38:27.364Z,102100.50
2023-02-26T21:40:55.147Z,102106.56
2023-02-26T21:43:22.787Z,102101.22
2023-02-26T21:45:51.011Z,102106.13
2023-02-26T21:48:18.838Z,102110.28
2023-02-26T21:50:47.909Z,102101.63
2023-02-26T21:53:16.972Z,102115.09
2023-02-26T21:55:44.690Z,102113.38
2023-02-26T21:58:12.468Z,102113.50
2023-02-26T22:00:40.245Z,102115.53
2023-02-26T22:03:08.065Z,102111.19
2023-02-26T22:05:35.660Z,102107.88
2023-02-26T22:08:03.421Z,102109.91
2023-02-26T22:10:32.455Z,102116.44
2023-02-26T22:13:00.125Z,102120.41
2023-02-26T22:15:27.821Z,102120.28
2023-02-26T22:17:55.476Z,102123.28
2023-02-26T22:20:23.518Z,102124.69
2023-02-26T22:22:51.715Z,102117.53
2023-02-26T22:25:19.440Z,102122.66
2023-02-26T22:27:48.549Z,102127.38
2023-02-26T22:30:16.391Z,102126.53
2023-02-26T22:32:44.894Z,102123.09
2023-02-26T22:35:13.864Z,102132.06
2023-02-26T22:37:42.256Z,102126.72
2023-02-26T22:40:12.182Z,102121.59
2023-02-26T22:42:40.443Z,102126.94
2023-02-26T22:45:12.345Z,102131.53
2023-02-26T22:47:40.252Z,102125.47
2023-02-26T22:50:08.515Z,102132.53
2023-02-26T22:52:36.191Z,102132.53
2023-02-26T22:55:03.939Z,102129.94
2023-02-26T22:57:31.928Z,102135.28
2023-02-26T22:59:59.720Z,102136.16
2023-02-26T23:02:30.998Z,102137.00
2023-02-26T23:04:58.737Z,102137.31
2023-02-26T23:07:26.495Z,102140.06
2023-02-26T23:09:54.191Z,102145.34
2023-02-26T23:12:21.849Z,102145.34
2023-02-26T23:14:49.577Z,102159.44
2023-02-26T23:17:17.445Z,102150.47
2023-02-26T23:19:46.644Z,102159.78
2023-02-26T23:22:14.548Z,102153.56
2023-02-26T23:24:42.739Z,102157.94
2023-02-26T23:27:10.688Z,102157.94
2023-02-26T23:29:38.607Z,102154.44
2023-02-26T23:32:08.801Z,102154.31
2023-02-26T23:34:36.656Z,102155.47
2023-02-26T23:37:06.229Z,102157.06
2023-02-26T23:39:34.142Z,102155.38
2023-02-26T23:42:01.772Z,102162.09
2023-02-26T23:44:29.536Z,102166.06
2023-02-26T23:46:57.099Z,102160.84
2023-02-26T23:49:24.858Z,102166.38
2023-02-26T23:51:52.510Z,102167.34
2023-02-26T23:54:21.564Z,102173.00
2023-02-26T23:56:49.318Z,102171.41
2023-02-26T23:59:18.324Z,102166.28
